sensor_id;sensor_type;location;lat;lon;timestamp;pressure;altitude;pressure_sealevel;temperature;humidity
78182;BME280;67441;50.116;8.696;2023-02-27T06:33:44;100915.63;;;-5.04;67.42
78182;BME280;67441;50.116;8.696;2023-02-27T06:34:09;101360.31;;;-2.41;67.41
78182;BME280;67441;50.116;8.696;2023-02-27T06:34:34;101408.66;;;-2.38;66.83
78182;BME280;67441;50.116;8.696;2023-02-27T06:35:00;101366.88;;;-2.34;67.17
78182;BME280;67441;50.116;8.696;2023-02-27T06:35:26;101242.88;;;-3.03;66.73
78182;BME280;67441;50.116;8.696;2023-02-27T06:35:53;101369.78;;;-2.30;67.01
78182;BME280;67441;50.116;8.696;2023-02-27T06:36:18;101365.66;;;-2.28;66.41
78182;BME280;67441;50.116;8.696;2023-02-27T06:36:43;101205.97;;;-3.14;66.23
78182;BME280;67441;50.116;8.696;2023-02-27T06:37:12;101361.75;;;-2.23;66.23
78182;BME280;67441;50.116;8.696;2023-02-27T06:37:37;101359.41;;;-2.20;66.16
78182;BME280;67441;50.116;8.696;2023-02-27T06:38:02;101360.44;;;-2.18;66.07
78182;BME280;67441;50.116;8.696;2023-02-27T06:38:29;101379.75;;;-2.12;66.32
78182;BME280;67441;50.116;8.696;2023-02-27T06:38:54;101364.50;;;-2.09;66.22
78182;BME280;67441;50.116;8.696;2023-02-27T06:39:19;101174.28;;;-3.13;65.83
78182;BME280;67441;50.116;8.696;2023-02-27T06:39:45;101312.81;;;-2.33;65.37
78182;BME280;67441;50.116;8.696;2023-02-27T06:40:10;101367.91;;;-1.99;65.37
78182;BME280;67441;50.116;8.696;2023-02-27T06:40:36;101325.34;;;-2.16;65.66
78182;BME280;67441;50.116;8.696;2023-02-27T06:41:02;101151.03;;;-3.15;65.32
78182;BME280;67441;50.116;8.696;2023-02-27T06:41:28;101362.91;;;-1.97;65.31
78182;BME280;67441;50.116;8.696;2023-02-27T06:41:53;101249.59;;;-2.61;65.64
78182;BME280;67441;50.116;8.696;2023-02-27T06:42:18;101362.91;;;-1.97;65.58
78182;BME280;67441;50.116;8.696;2023-02-27T06:42:44;101075.75;;;-3.66;65.43
78182;BME280;67441;50.116;8.696;2023-02-27T06:43:10;101367.69;;;-2.02;65.30
78182;BME280;67441;50.116;8.696;2023-02-27T06:43:35;101214.31;;;-2.84;65.28
78182;BME280;67441;50.116;8.696;2023-02-27T06:44:01;101362.66;;;-2.00;65.29
78182;BME280;67441;50.116;8.696;2023-02-27T06:44:26;101367.69;;;-2.02;65.78
78182;BME280;67441;50.116;8.696;2023-02-27T06:44:51;101360.19;;;-1.99;65.58
78182;BME280;67441;50.116;8.696;2023-02-27T06:45:17;101310.81;;;-2.25;65.42
78182;BME280;67441;50.116;8.696;2023-02-27T06:45:43;101364.78;;;-1.95;65.71
78182;BME280;67441;50.116;8.696;2023-02-27T06:46:08;101363.34;;;-1.91;65.23
78182;BME280;67441;50.116;8.696;2023-02-27T06:46:33;101188.19;;;-2.89;64.80
78182;BME280;67441;50.116;8.696;2023-02-27T06:46:58;101363.34;;;-1.91;65.02
78182;BME280;67441;50.116;8.696;2023-02-27T06:47:24;101369.63;;;-1.87;65.42
78182;BME280;67441;50.116;8.696;2023-02-27T06:47:49;101366.41;;;-1.85;65.75
78182;BME280;67441;50.116;8.696;2023-02-27T06:48:14;101382.34;;;-1.79;65.70
78182;BME280;67441;50.116;8.696;2023-02-27T06:48:39;101364.06;;;-1.82;64.97
78182;BME280;67441;50.116;8.696;2023-02-27T06:49:05;101160.47;;;-3.03;64.70
78182;BME280;67441;50.116;8.696;2023-02-27T06:49:30;101365.59;;;-1.84;65.25
78182;BME280;67441;50.116;8.696;2023-02-27T06:49:55;101156.31;;;-3.01;65.21
78182;BME280;67441;50.116;8.696;2023-02-27T06:50:21;101276.06;;;-2.30;65.46
78182;BME280;67441;50.116;8.696;2023-02-27T06:50:51;101358.47;;;-1.76;66.17
78182;BME280;67441;50.116;8.696;2023-02-27T06:51:16;101121.06;;;-3.24;64.84
78182;BME280;67441;50.116;8.696;2023-02-27T06:51:41;101362.72;;;-1.77;65.26
78182;BME280;67441;50.116;8.696;2023-02-27T06:52:07;101155.81;;;-2.97;65.31
78182;BME280;67441;50.116;8.696;2023-02-27T06:52:32;101255.09;;;-2.35;65.29
78182;BME280;67441;50.116;8.696;2023-02-27T06:52:57;101363.41;;;-1.68;64.84
78182;BME280;67441;50.116;8.696;2023-02-27T06:53:23;101361.72;;;-1.67;64.34
78182;BME280;67441;50.116;8.696;2023-02-27T06:53:49;101185.84;;;-2.64;64.49
78182;BME280;67441;50.116;8.696;2023-02-27T06:54:14;101364.31;;;-1.67;64.46
78182;BME280;67441;50.116;8.696;2023-02-27T06:54:39;101306.91;;;-1.98;64.50
78182;BME280;67441;50.116;8.696;2023-02-27T06:55:24;101362.63;;;-1.67;64.41
78182;BME280;67441;50.116;8.696;2023-02-27T06:55:53;101356.34;;;-1.70;64.38
78182;BME280;67441;50.116;8.696;2023-02-27T06:56:18;101247.47;;;-2.33;64.50
78182;BME280;67441;50.116;8.696;2023-02-27T06:56:44;101365.75;;;-1.71;64.26
78182;BME280;67441;50.116;8.696;2023-02-27T06:57:10;101364.22;;;-1.69;64.49
78182;BME280;67441;50.116;8.696;2023-02-27T06:57:35;101191.53;;;-2.68;64.63
78182;BME280;67441;50.116;8.696;2023-02-27T06:58:01;101289.22;;;-2.16;64.56
78182;BME280;67441;50.116;8.696;2023-02-27T06:58:26;101364.88;;;-1.71;64.43
78182;BME280;67441;50.116;8.696;2023-02-27T06:58:51;101365.66;;;-1.72;64.64
78182;BME280;67441;50.116;8.696;2023-02-27T06:59:17;101308.34;;;-2.02;64.41
78182;BME280;67441;50.116;8.696;2023-02-27T06:59:42;101373.97;;;-1.64;64.29
78182;BME280;67441;50.116;8.696;2023-02-27T07:00:09;101291.06;;;-2.03;64.96
78182;BME280;67441;50.116;8.696;2023-02-27T07:00:36;101363.34;;;-1.57;64.35
78182;BME280;67441;50.116;8.696;2023-02-27T07:01:01;101368.03;;;-1.63;64.25
78182;BME280;67441;50.116;8.696;2023-02-27T07:01:27;101280.41;;;-2.07;64.52
78182;BME280;67441;50.116;8.696;2023-02-27T07:01:52;101065.09;;;-3.27;63.90
78182;BME280;67441;50.116;8.696;2023-02-27T07:02:18;101371.09;;;-1.57;64.35
78182;BME280;67441;50.116;8.696;2023-02-27T07:02:44;101371.41;;;-1.53;64.51
78182;BME280;67441;50.116;8.696;2023-02-27T07:03:12;101184.53;;;-2.59;64.21
78182;BME280;67441;50.116;8.696;2023-02-27T07:03:37;101364.81;;;-1.49;64.29
78182;BME280;67441;50.116;8.696;2023-02-27T07:04:03;101374.13;;;-1.51;63.97
78182;BME280;67441;50.116;8.696;2023-02-27T07:04:28;101368.75;;;-1.54;63.96
78182;BME280;67441;50.116;8.696;2023-02-27T07:04:54;101193.50;;;-2.54;63.97
78182;BME280;67441;50.116;8.696;2023-02-27T07:05:19;101363.09;;;-1.60;64.47
78182;BME280;67441;50.116;8.696;2023-02-27T07:05:44;101371.50;;;-1.63;64.53
78182;BME280;67441;50.116;8.696;2023-02-27T07:06:14;101365.22;;;-1.67;64.30
78182;BME280;67441;50.116;8.696;2023-02-27T07:06:42;101234.56;;;-2.33;64.40
78182;BME280;67441;50.116;8.696;2023-02-27T07:07:09;101212.00;;;-2.48;64.62
78182;BME280;67441;50.116;8.696;2023-02-27T07:07:38;101375.59;;;-1.55;64.85
78182;BME280;67441;50.116;8.696;2023-02-27T07:08:04;101373.00;;;-1.55;64.60
78182;BME280;67441;50.116;8.696;2023-02-27T07:08:30;101395.69;;;-1.51;64.04
78182;BME280;67441;50.116;8.696;2023-02-27T07:08:56;101390.25;;;-1.65;64.41
78182;BME280;67441;50.116;8.696;2023-02-27T07:09:21;101373.47;;;-1.49;64.24
78182;BME280;67441;50.116;8.696;2023-02-27T07:09:48;101373.03;;;-1.43;64.43
78182;BME280;67441;50.116;8.696;2023-02-27T07:10:13;101367.75;;;-1.45;63.97
78182;BME280;67441;50.116;8.696;2023-02-27T07:10:38;100880.34;;;-4.20;64.19
78182;BME280;67441;50.116;8.696;2023-02-27T07:11:06;101368.41;;;-1.47;64.29
78182;BME280;67441;50.116;8.696;2023-02-27T07:11:32;101371.78;;;-1.48;64.26
78182;BME280;67441;50.116;8.696;2023-02-27T07:11:57;101209.66;;;-2.45;63.95
78182;BME280;67441;50.116;8.696;2023-02-27T07:12:25;101369.88;;;-1.51;64.40
78182;BME280;67441;50.116;8.696;2023-02-27T07:12:51;101123.69;;;-2.91;64.08
78182;BME280;67441;50.116;8.696;2023-02-27T07:13:16;101376.25;;;-1.46;64.35
78182;BME280;67441;50.116;8.696;2023-02-27T07:13:43;100964.81;;;-3.81;64.18
78182;BME280;67441;50.116;8.696;2023-02-27T07:14:09;101409.50;;;-1.50;64.03
78182;BME280;67441;50.116;8.696;2023-02-27T07:14:34;101370.09;;;-1.48;64.36
78182;BME280;67441;50.116;8.696;2023-02-27T07:15:00;101320.59;;;-1.87;64.20
78182;BME280;67441;50.116;8.696;2023-02-27T07:15:25;101373.69;;;-1.46;64.42
78182;BME280;67441;50.116;8.696;2023-02-27T07:15:53;101386.06;;;-1.41;64.33
78182;BME280;67441;50.116;8.696;2023-02-27T07:16:19;101383.91;;;-1.35;64.37
78182;BME280;67441;50.116;8.696;2023-02-27T07:16:44;101371.38;;;-1.31;64.49
78182;BME280;67441;50.116;8.696;2023-02-27T07:17:11;101376.06;;;-1.25;64.14
78182;BME280;67441;50.116;8.696;2023-02-27T07:17:37;101366.31;;;-1.29;63.76
78182;BME280;67441;50.116;8.696;2023-02-27T07:18:02;101374.84;;;-1.30;63.65
78182;BME280;67441;50.116;8.696;2023-02-27T07:18:27;101364.38;;;-1.32;63.83
78182;BME280;67441;50.116;8.696;2023-02-27T07:18:53;101152.22;;;-2.66;63.52
78182;BME280;67441;50.116;8.696;2023-02-27T07:19:24;101372.81;;;-1.34;63.90
78182;BME280;67441;50.116;8.696;2023-02-27T07:19:49;101186.94;;;-2.38;63.44
78182;BME280;67441;50.116;8.696;2023-02-27T07:20:14;101368.88;;;-1.29;63.70
78182;BME280;67441;50.116;8.696;2023-02-27T07:20:40;101231.84;;;-2.01;63.84
78182;BME280;67441;50.116;8.696;2023-02-27T07:21:05;101367.00;;;-1.20;63.78
78182;BME280;67441;50.116;8.696;2023-02-27T07:21:33;101361.94;;;-1.18;63.72
78182;BME280;67441;50.116;8.696;2023-02-27T07:21:59;101366.66;;;-1.13;63.46
78182;BME280;67441;50.116;8.696;2023-02-27T07:22:24;101287.34;;;-1.61;63.67
78182;BME280;67441;50.116;8.696;2023-02-27T07:22:49;101375.75;;;-1.18;63.84
78182;BME280;67441;50.116;8.696;2023-02-27T07:23:15;101370.03;;;-1.14;63.74
78182;BME280;67441;50.116;8.696;2023-02-27T07:23:40;101363.94;;;-1.14;63.80
78182;BME280;67441;50.116;8.696;2023-02-27T07:24:06;101383.19;;;-1.11;63.82
78182;BME280;67441;50.116;8.696;2023-02-27T07:24:31;101378.03;;;-1.11;63.22
78182;BME280;67441;50.116;8.696;2023-02-27T07:24:56;101242.69;;;-1.83;63.39
78182;BME280;67441;50.116;8.696;2023-02-27T07:25:22;101350.84;;;-1.17;63.29
78182;BME280;67441;50.116;8.696;2023-02-27T07:25:47;101371.06;;;-1.00;63.12
78182;BME280;67441;50.116;8.696;2023-02-27T07:26:12;101385.34;;;-0.93;63.04
78182;BME280;67441;50.116;8.696;2023-02-27T07:26:37;101371.47;;;-0.94;62.80
78182;BME280;67441;50.116;8.696;2023-02-27T07:27:03;101205.06;;;-1.92;62.83
78182;BME280;67441;50.116;8.696;2023-02-27T07:27:28;101368.00;;;-0.94;62.84
78182;BME280;67441;50.116;8.696;2023-02-27T07:27:53;101321.50;;;-1.30;62.91
78182;BME280;67441;50.116;8.696;2023-02-27T07:28:19;101369.72;;;-1.07;63.15
78182;BME280;67441;50.116;8.696;2023-02-27T07:28:44;101333.41;;;-1.20;62.94
78182;BME280;67441;50.116;8.696;2023-02-27T07:29:09;101374.75;;;-0.97;62.88
78182;BME280;67441;50.116;8.696;2023-02-27T07:29:35;101346.09;;;-1.11;62.82
78182;BME280;67441;50.116;8.696;2023-02-27T07:30:00;101365.19;;;-0.98;63.15
78182;BME280;67441;50.116;8.696;2023-02-27T07:30:25;101376.00;;;-1.03;63.09
78182;BME280;67441;50.116;8.696;2023-02-27T07:30:53;101373.66;;;-1.00;63.25
78182;BME280;67441;50.116;8.696;2023-02-27T07:31:18;101136.84;;;-2.42;63.44
78182;BME280;67441;50.116;8.696;2023-02-27T07:31:43;101373.50;;;-1.02;63.15
78182;BME280;67441;50.116;8.696;2023-02-27T07:32:09;101378.13;;;-0.98;62.84
78182;BME280;67441;50.116;8.696;2023-02-27T07:32:35;101372.06;;;-0.98;62.95
78182;BME280;67441;50.116;8.696;2023-02-27T07:33:00;101371.94;;;-1.00;63.31
78182;BME280;67441;50.116;8.696;2023-02-27T07:33:25;101371.38;;;-0.96;63.07
78182;BME280;67441;50.116;8.696;2023-02-27T07:33:51;101368.38;;;-0.90;62.82
78182;BME280;67441;50.116;8.696;2023-02-27T07:34:16;101379.59;;;-0.89;62.67
78182;BME280;67441;50.116;8.696;2023-02-27T07:34:41;101387.66;;;-0.85;62.94
78182;BME280;67441;50.116;8.696;2023-02-27T07:35:08;101220.56;;;-1.80;62.85
78182;BME280;67441;50.116;8.696;2023-02-27T07:35:34;101199.81;;;-1.93;62.86
78182;BME280;67441;50.116;8.696;2023-02-27T07:35:59;101368.47;;;-0.88;63.00
78182;BME280;67441;50.116;8.696;2023-02-27T07:36:24;101381.59;;;-0.85;62.93
78182;BME280;67441;50.116;8.696;2023-02-27T07:36:50;101374.84;;;-0.83;62.67
78182;BME280;67441;50.116;8.696;2023-02-27T07:37:15;101372.94;;;-0.74;62.86
78182;BME280;67441;50.116;8.696;2023-02-27T07:37:40;101370.59;;;-0.71;62.54
78182;BME280;67441;50.116;8.696;2023-02-27T07:38:05;101334.19;;;-0.98;62.29
78182;BME280;67441;50.116;8.696;2023-02-27T07:38:30;101373.50;;;-0.66;62.42
78182;BME280;67441;50.116;8.696;2023-02-27T07:38:56;101377.31;;;-0.61;62.37
78182;BME280;67441;50.116;8.696;2023-02-27T07:39:22;101374.84;;;-0.60;62.19
78182;BME280;67441;50.116;8.696;2023-02-27T07:39:47;101379.09;;;-0.60;61.84
78182;BME280;67441;50.116;8.696;2023-02-27T07:40:12;101376.44;;;-0.62;62.00
78182;BME280;67441;50.116;8.696;2023-02-27T07:40:38;101335.19;;;-0.84;62.01
78182;BME280;67441;50.116;8.696;2023-02-27T07:41:04;101375.06;;;-0.57;61.80
78182;BME280;67441;50.116;8.696;2023-02-27T07:41:29;101378.78;;;-0.65;62.16
78182;BME280;67441;50.116;8.696;2023-02-27T07:41:55;101224.63;;;-1.48;62.00
78182;BME280;67441;50.116;8.696;2023-02-27T07:42:20;101378.22;;;-0.61;62.27
78182;BME280;67441;50.116;8.696;2023-02-27T07:42:46;101375.84;;;-0.58;62.20
78182;BME280;67441;50.116;8.696;2023-02-27T07:43:12;101269.81;;;-1.18;61.94
78182;BME280;67441;50.116;8.696;2023-02-27T07:43:38;101368.53;;;-0.52;62.27
78182;BME280;67441;50.116;8.696;2023-02-27T07:44:03;101253.34;;;-1.20;61.52
78182;BME280;67441;50.116;8.696;2023-02-27T07:44:30;101184.88;;;-1.62;61.53
78182;BME280;67441;50.116;8.696;2023-02-27T07:44:56;101375.28;;;-0.54;61.67
78182;BME280;67441;50.116;8.696;2023-02-27T07:45:22;101377.50;;;-0.46;62.00
78182;BME280;67441;50.116;8.696;2023-02-27T07:45:47;101204.97;;;-1.46;61.63
78182;BME280;67441;50.116;8.696;2023-02-27T07:46:15;101323.59;;;-0.77;61.39
78182;BME280;67441;50.116;8.696;2023-02-27T07:46:40;101375.59;;;-0.49;61.84
78182;BME280;67441;50.116;8.696;2023-02-27T07:47:05;101316.75;;;-0.77;61.36
78182;BME280;67441;50.116;8.696;2023-02-27T07:47:31;101380.41;;;-0.42;61.72
78182;BME280;67441;50.116;8.696;2023-02-27T07:47:56;101396.72;;;-0.31;61.76
78182;BME280;67441;50.116;8.696;2023-02-27T07:48:21;101364.00;;;-0.42;61.42
78182;BME280;67441;50.116;8.696;2023-02-27T07:48:47;101377.56;;;-0.21;61.33
78182;BME280;67441;50.116;8.696;2023-02-27T07:49:12;101386.56;;;-0.16;60.60
78182;BME280;67441;50.116;8.696;2023-02-27T07:49:37;101384.19;;;-0.13;60.78
78182;BME280;67441;50.116;8.696;2023-02-27T07:50:03;101328.28;;;-0.48;60.50
78182;BME280;67441;50.116;8.696;2023-02-27T07:50:29;101382.13;;;-0.06;60.69
78182;BME280;67441;50.116;8.696;2023-02-27T07:50:54;101388.28;;;-0.04;60.38
78182;BME280;67441;50.116;8.696;2023-02-27T07:51:19;101379.91;;;-0.13;60.18
78182;BME280;67441;50.116;8.696;2023-02-27T07:51:45;101290.31;;;-0.61;60.47
78182;BME280;67441;50.116;8.696;2023-02-27T07:52:10;101389.25;;;0.10;60.07
78182;BME280;67441;50.116;8.696;2023-02-27T07:52:36;101382.34;;;0.22;59.58
78182;BME280;67441;50.116;8.696;2023-02-27T07:53:01;101269.38;;;-0.27;59.00
78182;BME280;67441;50.116;8.696;2023-02-27T07:53:27;101382.56;;;0.64;58.61
78182;BME280;67441;50.116;8.696;2023-02-27T07:53:52;101322.16;;;0.52;57.80
78182;BME280;67441;50.116;8.696;2023-02-27T07:54:17;101389.63;;;1.05;57.16
78182;BME280;67441;50.116;8.696;2023-02-27T07:54:43;101347.81;;;1.13;56.20
78182;BME280;67441;50.116;8.696;2023-02-27T07:55:08;101387.16;;;1.74;55.11
78182;BME280;67441;50.116;8.696;2023-02-27T07:55:35;101381.06;;;2.15;53.97
78182;BME280;67441;50.116;8.696;2023-02-27T07:56:00;101394.28;;;2.48;53.24
78182;BME280;67441;50.116;8.696;2023-02-27T07:56:25;101252.94;;;1.86;52.21
78182;BME280;67441;50.116;8.696;2023-02-27T07:56:51;101387.50;;;2.79;51.88
78182;BME280;67441;50.116;8.696;2023-02-27T07:57:16;101395.38;;;3.10;51.31
78182;BME280;67441;50.116;8.696;2023-02-27T07:57:44;101313.25;;;2.99;50.07
78182;BME280;67441;50.116;8.696;2023-02-27T07:58:09;101409.44;;;3.75;49.67
78182;BME280;67441;50.116;8.696;2023-02-27T07:58:35;101381.97;;;3.96;48.53
78182;BME280;67441;50.116;8.696;2023-02-27T07:59:00;101291.84;;;3.51;48.05
78182;BME280;67441;50.116;8.696;2023-02-27T07:59:26;101333.53;;;4.16;47.19
78182;BME280;67441;50.116;8.696;2023-02-27T07:59:51;101381.22;;;4.64;46.54
78182;BME280;67441;50.116;8.696;2023-02-27T08:00:17;101382.03;;;4.47;47.34
78182;BME280;67441;50.116;8.696;2023-02-27T08:00:42;101383.44;;;4.74;46.78
78182;BME280;67441;50.116;8.696;2023-02-27T08:01:08;101376.28;;;5.22;45.80
78182;BME280;67441;50.116;8.696;2023-02-27T08:01:33;101382.97;;;5.53;45.08
78182;BME280;67441;50.116;8.696;2023-02-27T08:01:58;101380.97;;;5.65;44.00
78182;BME280;67441;50.116;8.696;2023-02-27T08:02:24;101390.81;;;5.53;44.21
78182;BME280;67441;50.116;8.696;2023-02-27T08:02:49;101320.34;;;5.35;43.70
78182;BME280;67441;50.116;8.696;2023-02-27T08:03:14;101389.78;;;6.05;43.63
78182;BME280;67441;50.116;8.696;2023-02-27T08:03:40;101397.03;;;6.49;42.57
78182;BME280;67441;50.116;8.696;2023-02-27T08:04:05;101385.97;;;6.76;41.76
78182;BME280;67441;50.116;8.696;2023-02-27T08:04:30;101212.69;;;5.41;40.97
78182;BME280;67441;50.116;8.696;2023-02-27T08:04:55;101389.66;;;6.60;41.23
78182;BME280;67441;50.116;8.696;2023-02-27T08:05:21;101323.91;;;5.55;42.47
78182;BME280;67441;50.116;8.696;2023-02-27T08:05:47;101157.53;;;4.59;42.92
78182;BME280;67441;50.116;8.696;2023-02-27T08:06:12;101391.03;;;6.13;42.21
78182;BME280;67441;50.116;8.696;2023-02-27T08:06:38;101385.94;;;6.55;41.96
78182;BME280;67441;50.116;8.696;2023-02-27T08:07:04;101380.81;;;6.58;41.53
78182;BME280;67441;50.116;8.696;2023-02-27T08:07:29;101376.31;;;6.34;41.57
78182;BME280;67441;50.116;8.696;2023-02-27T08:07:54;101270.78;;;5.74;41.36
78182;BME280;67441;50.116;8.696;2023-02-27T08:08:20;101384.41;;;6.60;41.14
78182;BME280;67441;50.116;8.696;2023-02-27T08:08:46;101199.31;;;5.72;40.77
78182;BME280;67441;50.116;8.696;2023-02-27T08:09:11;101312.88;;;6.19;40.65
78182;BME280;67441;50.116;8.696;2023-02-27T08:09:36;101389.41;;;6.75;40.98
78182;BME280;67441;50.116;8.696;2023-02-27T08:10:03;101375.16;;;6.68;40.56
78182;BME280;67441;50.116;8.696;2023-02-27T08:10:29;101199.00;;;6.05;39.81
78182;BME280;67441;50.116;8.696;2023-02-27T08:10:54;101380.69;;;7.16;39.50
78182;BME280;67441;50.116;8.696;2023-02-27T08:11:20;101395.09;;;7.48;39.07
78182;BME280;67441;50.116;8.696;2023-02-27T08:11:45;101378.16;;;7.40;38.43
78182;BME280;67441;50.116;8.696;2023-02-27T08:12:10;101278.81;;;6.58;39.08
78182;BME280;67441;50.116;8.696;2023-02-27T08:12:35;101384.63;;;7.27;38.82
78182;BME280;67441;50.116;8.696;2023-02-27T08:13:01;101392.31;;;7.23;38.74
78182;BME280;67441;50.116;8.696;2023-02-27T08:13:26;101392.59;;;7.30;39.43
78182;BME280;67441;50.116;8.696;2023-02-27T08:13:51;101347.75;;;6.39;39.58
78182;BME280;67441;50.116;8.696;2023-02-27T08:14:17;101389.94;;;6.27;40.56
78182;BME280;67441;50.116;8.696;2023-02-27T08:14:42;101391.97;;;6.73;40.38
78182;BME280;67441;50.116;8.696;2023-02-27T08:15:08;101282.34;;;6.18;40.54
78182;BME280;67441;50.116;8.696;2023-02-27T08:15:33;101393.28;;;7.04;39.50
78182;BME280;67441;50.116;8.696;2023-02-27T08:15:59;101355.06;;;6.67;39.50
78182;BME280;67441;50.116;8.696;2023-02-27T08:16:24;101392.53;;;6.66;39.86
78182;BME280;67441;50.116;8.696;2023-02-27T08:16:49;101390.19;;;6.53;40.18
78182;BME280;67441;50.116;8.696;2023-02-27T08:17:14;101390.44;;;6.78;39.62
78182;BME280;67441;50.116;8.696;2023-02-27T08:17:40;101383.56;;;6.80;39.41
78182;BME280;67441;50.116;8.696;2023-02-27T08:18:05;101397.13;;;6.93;39.35
78182;BME280;67441;50.116;8.696;2023-02-27T08:18:30;101350.94;;;6.93;38.82
78182;BME280;67441;50.116;8.696;2023-02-27T08:18:56;101266.47;;;5.94;39.24
78182;BME280;67441;50.116;8.696;2023-02-27T08:19:21;101389.38;;;6.94;39.41
78182;BME280;67441;50.116;8.696;2023-02-27T08:19:46;101396.38;;;6.74;39.44
78182;BME280;67441;50.116;8.696;2023-02-27T08:20:12;101400.25;;;6.43;40.32
78182;BME280;67441;50.116;8.696;2023-02-27T08:20:38;101397.56;;;6.23;40.54
78182;BME280;67441;50.116;8.696;2023-02-27T08:21:03;101402.00;;;6.24;40.94
78182;BME280;67441;50.116;8.696;2023-02-27T08:21:29;101395.66;;;6.38;40.64
78182;BME280;67441;50.116;8.696;2023-02-27T08:21:54;101398.88;;;6.32;40.43
78182;BME280;67441;50.116;8.696;2023-02-27T08:22:19;101252.94;;;5.46;40.90
78182;BME280;67441;50.116;8.696;2023-02-27T08:22:45;101392.69;;;6.11;41.13
78182;BME280;67441;50.116;8.696;2023-02-27T08:23:10;101280.00;;;5.66;40.78
78182;BME280;67441;50.116;8.696;2023-02-27T08:23:36;101393.41;;;6.66;40.02
78182;BME280;67441;50.116;8.696;2023-02-27T08:24:01;101387.06;;;7.02;39.79
78182;BME280;67441;50.116;8.696;2023-02-27T08:24:27;101400.34;;;7.06;39.15
78182;BME280;67441;50.116;8.696;2023-02-27T08:24:52;101344.91;;;6.75;39.53
78182;BME280;67441;50.116;8.696;2023-02-27T08:25:17;101396.03;;;7.28;38.75
78182;BME280;67441;50.116;8.696;2023-02-27T08:25:43;101344.72;;;6.49;39.44
78182;BME280;67441;50.116;8.696;2023-02-27T08:26:08;101382.63;;;6.39;40.37
78182;BME280;67441;50.116;8.696;2023-02-27T08:26:33;101285.47;;;5.53;40.47
78182;BME280;67441;50.116;8.696;2023-02-27T08:26:58;101389.44;;;6.16;41.10
78182;BME280;67441;50.116;8.696;2023-02-27T08:27:24;101286.91;;;5.46;40.91
78182;BME280;67441;50.116;8.696;2023-02-27T08:27:49;101251.41;;;5.69;40.13
78182;BME280;67441;50.116;8.696;2023-02-27T08:28:14;101388.56;;;6.55;40.53
78182;BME280;67441;50.116;8.696;2023-02-27T08:28:40;101406.72;;;6.92;39.37
78182;BME280;67441;50.116;8.696;2023-02-27T08:29:05;101393.47;;;7.08;39.54
78182;BME280;67441;50.116;8.696;2023-02-27T08:29:31;101393.50;;;7.52;38.69
78182;BME280;67441;50.116;8.696;2023-02-27T08:29:57;101396.22;;;7.11;38.73
78182;BME280;67441;50.116;8.696;2023-02-27T08:30:22;101401.00;;;7.01;39.17
78182;BME280;67441;50.116;8.696;2023-02-27T08:30:48;101387.03;;;7.00;39.52
78182;BME280;67441;50.116;8.696;2023-02-27T08:31:13;101406.69;;;7.55;38.88
78182;BME280;67441;50.116;8.696;2023-02-27T08:31:38;101391.78;;;7.75;38.00
78182;BME280;67441;50.116;8.696;2023-02-27T08:32:03;101248.78;;;7.35;37.82
78182;BME280;67441;50.116;8.696;2023-02-27T08:32:29;101383.44;;;8.31;37.26
78182;BME280;67441;50.116;8.696;2023-02-27T08:32:54;101378.84;;;8.02;37.07
78182;BME280;67441;50.116;8.696;2023-02-27T08:33:20;101387.34;;;7.96;37.82
78182;BME280;67441;50.116;8.696;2023-02-27T08:33:45;101393.81;;;8.28;36.44
78182;BME280;67441;50.116;8.696;2023-02-27T08:34:10;101396.38;;;7.80;37.20
78182;BME280;67441;50.116;8.696;2023-02-27T08:34:36;101241.53;;;6.84;37.69
78182;BME280;67441;50.116;8.696;2023-02-27T08:35:01;101399.34;;;7.67;37.58
78182;BME280;67441;50.116;8.696;2023-02-27T08:35:26;101376.56;;;7.89;37.14
78182;BME280;67441;50.116;8.696;2023-02-27T08:35:52;101403.41;;;8.04;36.78
78182;BME280;67441;50.116;8.696;2023-02-27T08:36:19;101210.88;;;6.59;37.37
78182;BME280;67441;50.116;8.696;2023-02-27T08:36:44;101397.91;;;7.98;36.91
78182;BME280;67441;50.116;8.696;2023-02-27T08:37:10;101407.91;;;8.08;36.92
78182;BME280;67441;50.116;8.696;2023-02-27T08:37:35;101390.97;;;8.00;37.35
78182;BME280;67441;50.116;8.696;2023-02-27T08:38:01;101321.34;;;7.17;37.44
78182;BME280;67441;50.116;8.696;2023-02-27T08:38:26;101401.19;;;7.70;37.32
78182;BME280;67441;50.116;8.696;2023-02-27T08:38:51;101400.72;;;7.80;37.25
78182;BME280;67441;50.116;8.696;2023-02-27T08:39:17;101398.22;;;7.83;37.06
78182;BME280;67441;50.116;8.696;2023-02-27T08:39:42;101333.63;;;7.40;37.06
78182;BME280;67441;50.116;8.696;2023-02-27T08:40:08;101379.22;;;7.66;37.25
78182;BME280;67441;50.116;8.696;2023-02-27T08:40:35;101369.97;;;7.98;37.62
78182;BME280;67441;50.116;8.696;2023-02-27T08:41:00;101391.66;;;8.41;37.00
78182;BME280;67441;50.116;8.696;2023-02-27T08:41:25;101392.91;;;8.50;35.76
78182;BME280;67441;50.116;8.696;2023-02-27T08:41:51;101227.69;;;7.32;36.48
78182;BME280;67441;50.116;8.696;2023-02-27T08:42:16;101380.66;;;8.51;35.86
78182;BME280;67441;50.116;8.696;2023-02-27T08:42:43;101394.72;;;8.06;36.90
78182;BME280;67441;50.116;8.696;2023-02-27T08:43:08;101401.28;;;8.40;36.19
78182;BME280;67441;50.116;8.696;2023-02-27T08:43:34;101404.66;;;7.91;36.65
78182;BME280;67441;50.116;8.696;2023-02-27T08:44:00;101397.34;;;8.06;36.44
78182;BME280;67441;50.116;8.696;2023-02-27T08:44:26;101399.03;;;7.82;37.14
78182;BME280;67441;50.116;8.696;2023-02-27T08:44:51;101362.13;;;7.53;37.16
78182;BME280;67441;50.116;8.696;2023-02-27T08:45:17;101392.13;;;7.84;36.93
78182;BME280;67441;50.116;8.696;2023-02-27T08:45:42;101404.00;;;8.21;36.56
78182;BME280;67441;50.116;8.696;2023-02-27T08:46:08;101394.00;;;7.86;36.96
78182;BME280;67441;50.116;8.696;2023-02-27T08:46:34;101392.66;;;7.98;37.22
78182;BME280;67441;50.116;8.696;2023-02-27T08:46:59;101399.53;;;7.94;37.00
78182;BME280;67441;50.116;8.696;2023-02-27T08:47:24;101340.56;;;7.60;36.75
78182;BME280;67441;50.116;8.696;2023-02-27T08:47:50;101396.59;;;7.64;37.61
78182;BME280;67441;50.116;8.696;2023-02-27T08:48:16;101304.00;;;7.19;37.76
78182;BME280;67441;50.116;8.696;2023-02-27T08:48:42;101353.00;;;7.44;37.63